createdAt,value
2022-08-18T00:03:56.795Z,99638.84
2022-08-18T00:09:03.535Z,99631.94
2022-08-18T00:14:05.682Z,99633.56
2022-08-18T00:19:09.353Z,99625.31
2022-08-18T00:24:11.402Z,99633.88
2022-08-18T00:29:12.934Z,99632.09
2022-08-18T00:34:14.564Z,99638.53
2022-08-18T00:39:16.367Z,99639.53
2022-08-18T00:44:17.915Z,99644.41
2022-08-18T00:49:19.520Z,99638.50
2022-08-18T00:54:24.965Z,99632.88
2022-08-18T00:59:31.964Z,99646.78
2022-08-18T01:04:44.486Z,99646.78
2022-08-18T01:09:50.866Z,99648.78
2022-08-18T01:14:52.790Z,99637.94
2022-08-18T01:20:13.310Z,99643.69
2022-08-18T01:25:35.519Z,99635.00
2022-08-18T01:30:50.011Z,99651.41
2022-08-18T01:35:51.628Z,99654.38
2022-08-18T01:41:25.162Z,99642.88
2022-08-18T01:46:20.200Z,99650.25
2022-08-18T01:51:38.860Z,99646.41
2022-08-18T01:56:43.396Z,99642.41
2022-08-18T02:01:50.404Z,99642.28
2022-08-18T02:06:56.162Z,99645.13
2022-08-18T02:11:59.228Z,99641.56
2022-08-18T02:17:02.904Z,99638.75
2022-08-18T02:22:06.050Z,99646.09
2022-08-18T02:27:09.055Z,99640.03
2022-08-18T02:32:10.738Z,99644.94
2022-08-18T02:37:15.298Z,99637.56
2022-08-18T02:42:17.699Z,99633.34
2022-08-18T02:47:20.780Z,99625.94
2022-08-18T02:52:22.652Z,99614.00
2022-08-18T02:57:24.314Z,99607.47
2022-08-18T03:02:25.891Z,99611.69
2022-08-18T03:07:27.498Z,99613.75
2022-08-18T03:12:29.369Z,99600.72
2022-08-18T03:17:31.808Z,99605.44
2022-08-18T03:22:34.117Z,99615.75
2022-08-18T03:27:35.917Z,99618.56
2022-08-18T03:32:37.476Z,99612.81
2022-08-18T03:37:39.169Z,99611.72
2022-08-18T03:42:40.859Z,99612.06
2022-08-18T03:47:42.462Z,99603.69
2022-08-18T03:52:48.516Z,99608.19
2022-08-18T03:57:52.910Z,99616.72
2022-08-18T04:02:54.726Z,99612.88
2022-08-18T04:07:57.241Z,99623.44
2022-08-18T04:12:58.871Z,99637.91
2022-08-18T04:18:04.460Z,99637.91
2022-08-18T04:23:06.332Z,99618.16
2022-08-18T04:28:07.924Z,99627.66
2022-08-18T04:33:09.463Z,99636.84
2022-08-18T04:38:11.001Z,99635.41
2022-08-18T04:43:15.279Z,99636.50
2022-08-18T04:48:17.024Z,99644.84
2022-08-18T04:53:37.846Z,99640.00
2022-08-18T04:58:39.483Z,99645.47
2022-08-18T05:03:50.406Z,99643.97
2022-08-18T05:08:54.373Z,99647.78
2022-08-18T05:13:57.861Z,99648.31
2022-08-18T05:19:03.054Z,99655.94
2022-08-18T05:24:09.228Z,99654.75
2022-08-18T05:29:19.109Z,99655.47
2022-08-18T05:34:21.794Z,99647.53
2022-08-18T05:39:53.482Z,99654.69
2022-08-18T05:44:55.813Z,99656.97
2022-08-18T05:50:03.703Z,99653.63
2022-08-18T05:55:28.890Z,99652.75
2022-08-18T06:00:31.079Z,99653.69
2022-08-18T06:05:36.534Z,99664.84
2022-08-18T06:10:40.016Z,99654.63
2022-08-18T06:15:59.614Z,99647.81
2022-08-18T06:21:38.329Z,99650.97
2022-08-18T06:27:07.195Z,99662.00
2022-08-18T06:32:30.014Z,99646.63
2022-08-18T06:37:58.761Z,99651.19
2022-08-18T06:43:02.060Z,99654.41
2022-08-18T06:48:16.049Z,99651.25
2022-08-18T06:53:27.304Z,99650.41
2022-08-18T06:58:30.690Z,99649.28
2022-08-18T07:03:35.341Z,99654.69
2022-08-18T07:08:41.266Z,99656.69
2022-08-18T07:13:44.993Z,99653.13
2022-08-18T07:18:46.962Z,99656.13
2022-08-18T07:24:23.178Z,99649.78
2022-08-18T07:29:20.199Z,99653.34
2022-08-18T07:34:37.522Z,99669.03
2022-08-18T07:39:49.566Z,99659.22
2022-08-18T07:44:59.477Z,99664.81
2022-08-18T07:50:36.212Z,99667.03
2022-08-18T07:55:35.256Z,99681.34
2022-08-18T08:01:10.733Z,99683.53
2022-08-18T08:06:30.689Z,99670.91
2022-08-18T08:11:55.809Z,99677.25
2022-08-18T08:17:23.777Z,99667.94
2022-08-18T08:22:52.774Z,99662.19
2022-08-18T08:28:09.524Z,99683.03
2022-08-18T08:33:21.196Z,99687.47
2022-08-18T08:38:46.579Z,99690.78
2022-08-18T08:44:14.397Z,99689.16
2022-08-18T08:49:38.238Z,99681.78
2022-08-18T08:55:02.853Z,99666.06
2022-08-18T09:00:07.540Z,99653.13
2022-08-18T09:05:13.897Z,99655.28
2022-08-18T09:10:24.607Z,99656.13
2022-08-18T09:15:26.344Z,99647.34
2022-08-18T09:20:49.006Z,99648.16
2022-08-18T09:25:55.016Z,99635.28
2022-08-18T09:31:08.738Z,99627.03
2022-08-18T09:36:28.679Z,99627.31
2022-08-18T09:41:36.070Z,99621.53
2022-08-18T09:46:43.863Z,99623.69
2022-08-18T09:51:45.480Z,99616.53
2022-08-18T09:56:54.358Z,99615.72
2022-08-18T10:01:57.411Z,99595.56
2022-08-18T10:07:43.301Z,99599.41
2022-08-18T10:13:29.677Z,99583.91
2022-08-18T10:18:58.271Z,99595.44
2022-08-18T10:24:35.329Z,99598.19
2022-08-18T10:29:48.464Z,99597.94
2022-08-18T10:34:58.292Z,99605.13
2022-08-18T10:40:04.454Z,99606.25
2022-08-18T10:45:16.034Z,99599.38
2022-08-18T10:50:26.513Z,99604.84
2022-08-18T10:55:48.706Z,99596.06
2022-08-18T11:01:07.270Z,99603.78
2022-08-18T11:06:18.059Z,99592.78
2022-08-18T11:11:37.274Z,99609.84
2022-08-18T11:16:42.361Z,99618.69
2022-08-18T11:21:51.406Z,99614.28
2022-08-18T11:26:59.515Z,99616.97
2022-08-18T11:32:25.392Z,99621.38
2022-08-18T11:37:51.321Z,99629.09
2022-08-18T11:43:01.479Z,99629.38
2022-08-18T11:48:46.399Z,99643.19
2022-08-18T11:59:52.430Z,99643.78
2022-08-18T12:04:57.545Z,99647.38
2022-08-18T12:10:19.269Z,99646.56
2022-08-18T12:15:29.581Z,99648.22
2022-08-18T12:20:49.274Z,99644.09
2022-08-18T12:25:52.975Z,99657.00
2022-08-18T12:30:56.811Z,99660.53
2022-08-18T12:35:59.730Z,99647.91
2022-08-18T12:41:01.552Z,99634.66
2022-08-18T12:46:04.841Z,99631.34
2022-08-18T12:51:07.352Z,99615.97
2022-08-18T12:56:22.744Z,99623.53
2022-08-18T13:01:27.115Z,99617.97
2022-08-18T13:06:28.818Z,99620.50
2022-08-18T13:11:30.420Z,99605.81
2022-08-18T13:16:38.768Z,99595.91
2022-08-18T13:21:57.072Z,99579.41
2022-08-18T13:26:58.856Z,99565.97
2022-08-18T13:32:00.712Z,99548.91
2022-08-18T13:37:02.434Z,99550.25
2022-08-18T13:42:26.750Z,99559.53
2022-08-18T13:47:28.485Z,99563.38
2022-08-18T13:52:35.577Z,99560.56
2022-08-18T13:57:40.218Z,99557.81
2022-08-18T14:02:41.926Z,99564.44
2022-08-18T14:07:46.179Z,99571.13
2022-08-18T14:12:47.833Z,99580.34
2022-08-18T14:17:51.514Z,99580.25
2022-08-18T14:23:14.220Z,99575.56
2022-08-18T14:28:26.271Z,99560.47
2022-08-18T14:33:49.753Z,99554.19
2022-08-18T14:38:52.030Z,99554.72
2022-08-18T14:44:12.238Z,99561.53
2022-08-18T14:49:15.409Z,99547.28
2022-08-18T14:54:31.850Z,99559.63
2022-08-18T14:59:34.548Z,99560.84
2022-08-18T15:04:55.916Z,99562.50
2022-08-18T15:10:15.084Z,99562.25
2022-08-18T15:15:18.814Z,99553.44
2022-08-18T15:20:29.436Z,99545.97
2022-08-18T15:25:51.192Z,99536.38
2022-08-18T15:31:16.791Z,99532.00
2022-08-18T15:36:16.604Z,99539.66
2022-08-18T15:41:43.807Z,99532.75
2022-08-18T15:46:53.333Z,99519.31
2022-08-18T15:51:55.118Z,99498.66
2022-08-18T15:56:58.816Z,99481.16
2022-08-18T16:02:00.955Z,99486.13
2022-08-18T16:07:02.608Z,99481.22
2022-08-18T16:12:04.542Z,99485.91
2022-08-18T16:17:09.409Z,99477.41
2022-08-18T16:22:19.685Z,99474.06
2022-08-18T16:27:23.445Z,99470.50
2022-08-18T16:32:25.110Z,99465.31
2022-08-18T16:37:27.220Z,99463.72
2022-08-18T16:42:32.614Z,99459.38
2022-08-18T16:47:38.962Z,99454.69
2022-08-18T16:52:40.935Z,99450.00
2022-08-18T16:58:02.370Z,99448.09
2022-08-18T17:03:24.293Z,99454.94
2022-08-18T17:08:26.151Z,99451.41
2022-08-18T17:13:27.901Z,99434.41
2022-08-18T17:18:30.530Z,99419.84
2022-08-18T17:23:32.718Z,99420.44
2022-08-18T17:28:50.582Z,99415.22
2022-08-18T17:33:57.647Z,99420.47
2022-08-18T17:39:02.255Z,99420.47
2022-08-18T17:44:06.739Z,99419.94
2022-08-18T17:49:54.416Z,99423.25
2022-08-18T17:55:20.366Z,99424.38
2022-08-18T18:00:22.835Z,99428.22
2022-08-18T18:05:32.978Z,99432.06
2022-08-18T18:10:51.005Z,99425.72
2022-08-18T18:16:23.339Z,99433.69
2022-08-18T18:21:53.596Z,99420.53
2022-08-18T18:26:48.211Z,99417.00
2022-08-18T18:31:57.778Z,99419.44
2022-08-18T18:37:01.519Z,99416.69
2022-08-18T18:42:17.638Z,99411.19
2022-08-18T18:47:45.666Z,99409.25
2022-08-18T18:53:05.842Z,99412.53
2022-08-18T18:58:45.663Z,99402.66
2022-08-18T19:03:53.881Z,99408.91
2022-08-18T19:09:01.378Z,99412.22
2022-08-18T19:14:07.444Z,99412.72
2022-08-18T19:19:35.477Z,99401.16
2022-08-18T19:24:45.533Z,99409.44
2022-08-18T19:29:47.568Z,99418.72
2022-08-18T19:34:51.345Z,99424.72
2022-08-18T19:40:07.845Z,99425.78
2022-08-18T19:45:25.400Z,99420.28
2022-08-18T19:50:38.555Z,99407.75
2022-08-18T19:55:47.407Z,99394.56
2022-08-18T20:00:56.873Z,99396.69
2022-08-18T20:06:34.787Z,99396.66
2022-08-18T20:11:42.041Z,99399.34
2022-08-18T20:17:09.537Z,99393.28
2022-08-18T20:22:28.508Z,99387.19
2022-08-18T20:27:35.736Z,99386.59
2022-08-18T20:32:37.716Z,99378.72
2022-08-18T20:37:42.631Z,99373.47
2022-08-18T20:42:51.510Z,99381.34
2022-08-18T20:48:10.619Z,99381.09
2022-08-18T20:53:50.395Z,99386.00
2022-08-18T20:59:04.013Z,99375.56
2022-08-18T21:04:10.662Z,99378.66
2022-08-18T21:09:17.579Z,99363.53
2022-08-18T21:14:29.996Z,99372.84
2022-08-18T21:19:31.721Z,99382.63
2022-08-18T21:24:39.060Z,99394.75
2022-08-18T21:29:47.538Z,99386.50
2022-08-18T21:34:51.547Z,99386.44
2022-08-18T21:39:56.570Z,99418.47
2022-08-18T21:45:01.064Z,99408.63
2022-08-18T21:50:10.654Z,99390.19
2022-08-18T21:55:30.089Z,99383.09
2022-08-18T22:00:36.262Z,99385.19
2022-08-18T22:05:58.924Z,99389.06
2022-08-18T22:11:41.843Z,99375.91
2022-08-18T22:17:31.438Z,99410.38
2022-08-18T22:22:52.685Z,99408.63
2022-08-18T22:27:56.930Z,99418.53
2022-08-18T22:32:59.517Z,99421.19
2022-08-18T22:38:01.591Z,99407.53
2022-08-18T22:43:03.206Z,99406.38
2022-08-18T22:48:04.907Z,99403.00
2022-08-18T22:53:06.517Z,99392.59
2022-08-18T22:58:08.210Z,99396.41
2022-08-18T23:03:12.358Z,99397.69
2022-08-18T23:08:13.962Z,99388.47
2022-08-18T23:13:17.057Z,99372.31
2022-08-18T23:18:20.570Z,99383.06
2022-08-18T23:23:23.856Z,99362.84
2022-08-18T23:28:27.165Z,99353.56
2022-08-18T23:33:28.822Z,99337.09
2022-08-18T23:38:31.814Z,99346.88
2022-08-18T23:43:35.927Z,99356.69
2022-08-18T23:48:37.753Z,99360.78
2022-08-18T23:53:39.644Z,99361.03
2022-08-18T23:58:41.230Z,99378.31
